Sherbro International Airport

Jump to: basic info | weather | comments

Related pages: nearby airports | nearby navaids | notams | map

Basic information (top)

Codes: BTE GFBN
Location: lon 7.532420, lat -12.518900, elev 14 ft / 4 m msl
Status: medium_airport
Scheduled airline service: yes
Links: Wikipedia Mobile

Weather (top)

Current conditions for Lungi International Airport 77nm (142km) NNW (rec'd 2015/02/01 00:00Z):

GFLL 010000Z 30005KT 9999 SCT013 26/23 Q1013

Airport forecast for Lungi International Airport 77nm (142km) NNW (rec'd 2015/01/31 18:51Z):

TAF TAF GFLL 311600Z 3118/0124 30010KT 9999 SCT017 
      BECMG 3121/3123 27009KT 9999 SCT013 
      TEMPO 0103/0107 09006KT 6000 BR BKN010 
      BECMG 0110/0112 27008KT 9999 SCT014

Latest comments (top)

No comments yet for Sherbro International Airport

More... (top)

See also NOTAMs and nearby airports and navaids, or visit the Sherbro International Airport page at the main OurAirports website..